createdAt,value
2023-02-09T00:01:59.948Z,4130.9
2023-02-09T00:07:35.284Z,4130.4
2023-02-09T00:13:10.778Z,4128.5
2023-02-09T00:18:45.642Z,4131.7
2023-02-09T00:24:21.068Z,4125.9
2023-02-09T00:29:57.437Z,4130.7
2023-02-09T00:35:55.507Z,4128.9
2023-02-09T00:41:33.984Z,4129
2023-02-09T00:47:30.586Z,4121
2023-02-09T00:53:33.950Z,4125.7
2023-02-09T00:59:26.927Z,4123.9
2023-02-09T01:05:09.446Z,4123.5
2023-02-09T01:10:47.335Z,4124.9
2023-02-09T01:16:24.125Z,4122.5
2023-02-09T01:22:00.557Z,4127.9
2023-02-09T01:27:45.133Z,4123.9
2023-02-09T01:33:20.625Z,4122.5
2023-02-09T01:38:55.656Z,4120.2
2023-02-09T01:44:36.219Z,4126.5
2023-02-09T01:50:14.580Z,4124.4
2023-02-09T01:55:50.116Z,4122.7
2023-02-09T02:01:26.737Z,4119
2023-02-09T02:07:12.387Z,4120.2
2023-02-09T02:12:47.161Z,4119
2023-02-09T02:18:22.694Z,4121.2
2023-02-09T02:23:57.973Z,4121.3
2023-02-09T02:30:01.679Z,4118.3
2023-02-09T02:35:45.249Z,4116.6
2023-02-09T02:41:24.120Z,4116.6
2023-02-09T02:47:20.822Z,4112.8
2023-02-09T02:53:02.099Z,4114.5
2023-02-09T02:58:37.193Z,4112.6
2023-02-09T03:04:15.456Z,4113.8
2023-02-09T03:09:52.463Z,4117
2023-02-09T03:15:27.926Z,4114
2023-02-09T03:21:03.991Z,4116.1
2023-02-09T03:26:39.873Z,4112.3
2023-02-09T03:32:14.856Z,4114.1
2023-02-09T03:37:49.760Z,4109.6
2023-02-09T03:43:30.138Z,4113.6
2023-02-09T03:49:27.144Z,4108.1
2023-02-09T03:54:59.649Z,4106.6
2023-02-09T04:00:35.305Z,4110.6
2023-02-09T04:06:10.530Z,4110.1
2023-02-09T04:11:45.423Z,4108.4
2023-02-09T04:17:23.493Z,4108.9
2023-02-09T04:23:26.423Z,4104.6
2023-02-09T04:29:05.148Z,4109.3
2023-02-09T04:34:44.814Z,4105.1
2023-02-09T04:40:22.567Z,4107.1
2023-02-09T04:45:58.924Z,4108.3
2023-02-09T04:51:55.100Z,4105.4
2023-02-09T04:57:31.031Z,4104.1
2023-02-09T05:03:06.214Z,4101.2
2023-02-09T05:08:41.162Z,4103.6
2023-02-09T05:14:17.038Z,4104.6
2023-02-09T05:19:52.644Z,4102.9
2023-02-09T05:25:28.990Z,4103.4
2023-02-09T05:31:06.607Z,4103.9
2023-02-09T05:36:41.757Z,4102.2
2023-02-09T05:42:18.194Z,4100.9
2023-02-09T05:48:15.173Z,4097.7
2023-02-09T05:53:50.253Z,4099.6
2023-02-09T05:59:33.974Z,4100.1
2023-02-09T06:05:18.693Z,4099.4
2023-02-09T06:10:57.316Z,4099.1
2023-02-09T06:16:37.447Z,4099.6
2023-02-09T06:22:19.110Z,4099.6
2023-02-09T06:27:56.184Z,4101.2
2023-02-09T06:33:31.648Z,4097.2
2023-02-09T06:39:07.025Z,4097.2
2023-02-09T06:45:03.339Z,4098.6
2023-02-09T06:50:46.603Z,4097
2023-02-09T06:56:37.366Z,4098.1
2023-02-09T07:03:08.148Z,4094.9
2023-02-09T07:08:46.531Z,4092.9
2023-02-09T07:14:34.739Z,4090.7
2023-02-09T07:20:11.037Z,4089.5
2023-02-09T07:25:53.753Z,4087.7
2023-02-09T07:31:32.053Z,4086.7
2023-02-09T07:37:11.437Z,4104.4
2023-02-09T07:42:46.861Z,4104.1
2023-02-09T07:48:43.805Z,4121.7
2023-02-09T07:54:22.694Z,4196.5
2023-02-09T08:00:19.993Z,4146.6
2023-02-09T08:06:20.901Z,4140.1
2023-02-09T08:12:28.523Z,4138.9
2023-02-09T08:18:15.284Z,4139.1
2023-02-09T08:23:51.164Z,4184.7
2023-02-09T08:29:29.244Z,4180.6
2023-02-09T08:35:04.991Z,4159.9
2023-02-09T08:40:49.101Z,4204.2
2023-02-09T08:46:26.258Z,4184.7
2023-02-09T08:52:05.837Z,4180.3
2023-02-09T08:57:46.101Z,4200.9
2023-02-09T09:03:22.429Z,4179.8
2023-02-09T09:08:58.205Z,4183.6
2023-02-09T09:14:33.834Z,4171.8
2023-02-09T09:20:08.718Z,4186.8
2023-02-09T09:25:49.118Z,4203.2
2023-02-09T09:31:27.197Z,4174.8
2023-02-09T09:37:02.893Z,4174.8
2023-02-09T09:42:40.073Z,4179.6
2023-02-09T09:48:15.592Z,4191.7
2023-02-09T09:53:51.738Z,4210.6
2023-02-09T09:59:28.166Z,4195.5
2023-02-09T10:05:03.661Z,4181.5
2023-02-09T10:10:38.918Z,4208.8
2023-02-09T10:16:14.539Z,4185.7
2023-02-09T10:21:49.642Z,4197.4
2023-02-09T10:27:24.579Z,4183.3
2023-02-09T10:33:00.037Z,4207.3
2023-02-09T10:38:35.408Z,4186.7
2023-02-09T10:44:11.685Z,4200.6
2023-02-09T10:49:47.009Z,4199.9
2023-02-09T10:55:22.216Z,4194.5
2023-02-09T11:00:57.660Z,4205.1
2023-02-09T11:06:33.151Z,4197.2
2023-02-09T11:12:08.599Z,4204.6
2023-02-09T11:17:44.942Z,4191.4
2023-02-09T11:23:21.268Z,4211.3
2023-02-09T11:28:56.892Z,4198.4
2023-02-09T11:34:32.119Z,4213.3
2023-02-09T11:40:08.427Z,4198.4
2023-02-09T11:45:43.854Z,4189.3
2023-02-09T11:51:19.034Z,4191
2023-02-09T11:56:55.259Z,4217.1
2023-02-09T12:02:32.149Z,4212.8
2023-02-09T12:08:10.373Z,4216
2023-02-09T12:13:50.449Z,4213.8
2023-02-09T12:19:25.723Z,4213.1
2023-02-09T12:25:10.112Z,4211.8
2023-02-09T12:30:49.383Z,4210.9
2023-02-09T12:36:25.263Z,4205.3
2023-02-09T12:42:00.357Z,4212
2023-02-09T12:47:35.845Z,4193.4
2023-02-09T12:53:11.135Z,4207.9
2023-02-09T12:58:46.519Z,4205.4
2023-02-09T13:04:22.328Z,4203.2
2023-02-09T13:09:57.912Z,4205.4
2023-02-09T13:15:33.151Z,4203.2
2023-02-09T13:21:09.590Z,4213.1
2023-02-09T13:26:45.030Z,4219.7
2023-02-09T13:32:20.373Z,4203.9
2023-02-09T13:37:56.162Z,4203.4
2023-02-09T13:43:40.785Z,4207.4
2023-02-09T13:49:16.063Z,4213.3
2023-02-09T13:54:51.524Z,4214.1
2023-02-09T14:00:27.546Z,4213.1
2023-02-09T14:06:02.764Z,4212.3
2023-02-09T14:11:44.418Z,4217.6
2023-02-09T14:17:27.637Z,4210.9
2023-02-09T14:23:04.056Z,4200.9
2023-02-09T14:28:40.471Z,4219
2023-02-09T14:34:16.309Z,4220.8
2023-02-09T14:39:51.873Z,4210.1
2023-02-09T14:45:32.945Z,4206.6
2023-02-09T14:51:09.337Z,4220.8
2023-02-09T14:56:44.776Z,4201.6
2023-02-09T15:02:22.154Z,4222.8
2023-02-09T15:07:57.813Z,4208.4
2023-02-09T15:13:33.345Z,4220.2
2023-02-09T15:19:09.335Z,4216
2023-02-09T15:24:44.396Z,4224
2023-02-09T15:30:19.550Z,4203.4
2023-02-09T15:35:54.800Z,4201.7
2023-02-09T15:41:29.770Z,4201.9
2023-02-09T15:47:06.025Z,4194.2
2023-02-09T15:52:46.563Z,4194.9
2023-02-09T15:58:21.309Z,4190.3
2023-02-09T16:04:16.103Z,4181.1
2023-02-09T16:09:51.914Z,4186
2023-02-09T16:15:27.170Z,4186.5
2023-02-09T16:21:02.448Z,4190.7
2023-02-09T16:26:37.962Z,4190.2
2023-02-09T16:32:13.199Z,4185
2023-02-09T16:37:48.828Z,4182.5
2023-02-09T16:43:25.271Z,4181.6
2023-02-09T16:49:00.900Z,4178
2023-02-09T16:54:38.609Z,4175.8
2023-02-09T17:00:14.258Z,4172.6
2023-02-09T17:05:51.747Z,4169.6
2023-02-09T17:11:26.734Z,4167.7
2023-02-09T17:17:13.184Z,4167.4
2023-02-09T17:22:48.497Z,4163
2023-02-09T17:28:24.258Z,4165.4
2023-02-09T17:34:01.011Z,4164.2
2023-02-09T17:39:38.135Z,4163.4
2023-02-09T17:45:14.907Z,4163.2
2023-02-09T17:50:53.454Z,4159.7
2023-02-09T17:56:32.017Z,4162.9
2023-02-09T18:02:22.619Z,4159
2023-02-09T18:07:59.164Z,4163
2023-02-09T18:14:02.501Z,4158
2023-02-09T18:19:38.746Z,4164.6
2023-02-09T18:25:21.861Z,4157.7
2023-02-09T18:31:24.031Z,4158.7
2023-02-09T18:37:03.163Z,4163.5
2023-02-09T18:42:38.186Z,4160.2
2023-02-09T18:48:42.447Z,4163.2
2023-02-09T18:54:17.550Z,4158.5
2023-02-09T19:00:07.972Z,4160.2
2023-02-09T19:05:43.479Z,4157.9
2023-02-09T19:11:29.686Z,4156.5
2023-02-09T19:17:07.104Z,4158
2023-02-09T19:22:46.548Z,4157.4
2023-02-09T19:28:26.602Z,4159
2023-02-09T19:34:01.775Z,4154.8
2023-02-09T19:39:47.355Z,4157.2
2023-02-09T19:45:23.141Z,4158.2
2023-02-09T19:50:58.658Z,4154.5
2023-02-09T19:56:37.753Z,4155
2023-02-09T20:02:35.486Z,4153.8
2023-02-09T20:09:11.546Z,4152.8
2023-02-09T20:14:51.422Z,4155.5
2023-02-09T20:20:28.727Z,4155.5
2023-02-09T20:26:03.817Z,4152.3
2023-02-09T20:31:45.238Z,4154.3
2023-02-09T20:37:29.575Z,4152.7
2023-02-09T20:43:05.056Z,4151.3
2023-02-09T20:49:02.091Z,4149.1
2023-02-09T20:54:44.922Z,4149.6
2023-02-09T21:00:31.342Z,4148.6
2023-02-09T21:06:07.141Z,4150.3
2023-02-09T21:11:51.631Z,4149.1
2023-02-09T21:17:31.110Z,4148.8
2023-02-09T21:23:16.063Z,4151
2023-02-09T21:29:01.366Z,4145.5
2023-02-09T21:34:37.651Z,4146.1
2023-02-09T21:40:14.437Z,4145.1
2023-02-09T21:45:49.965Z,4145.3
2023-02-09T21:51:35.131Z,4145.3
2023-02-09T21:57:10.730Z,4145.6
2023-02-09T22:02:45.948Z,4146.1
2023-02-09T22:08:22.402Z,4148.5
2023-02-09T22:13:57.705Z,4142.9
2023-02-09T22:19:32.659Z,4142.6
2023-02-09T22:25:07.677Z,4142.1
2023-02-09T22:30:45.350Z,4142.3
2023-02-09T22:36:51.203Z,4144.3
2023-02-09T22:42:47.763Z,4139.4
2023-02-09T22:48:27.207Z,4141.4
2023-02-09T22:54:52.531Z,4139.9
2023-02-09T23:00:28.278Z,4139.3
2023-02-09T23:06:08.021Z,4138.9
2023-02-09T23:11:51.890Z,4137.9
2023-02-09T23:17:29.275Z,4137.2
2023-02-09T23:23:04.507Z,4136.6
2023-02-09T23:28:41.007Z,4135.9
2023-02-09T23:34:16.190Z,4135.7
2023-02-09T23:39:53.220Z,4132.2
2023-02-09T23:45:29.306Z,4133.2
2023-02-09T23:51:10.225Z,4132.9
2023-02-09T23:56:58.958Z,4132.9
